createdAt,value
2022-08-21T00:01:58.608Z,101446.97
2022-08-21T00:04:29.433Z,101437.19
2022-08-21T00:06:59.842Z,101432.81
2022-08-21T00:09:29.459Z,101431.84
2022-08-21T00:11:58.745Z,101435.00
2022-08-21T00:14:27.940Z,101438.28
2022-08-21T00:17:01.360Z,101426.00
2022-08-21T00:19:32.715Z,101427.03
2022-08-21T00:22:02.040Z,101427.19
2022-08-21T00:24:31.089Z,101423.81
2022-08-21T00:27:00.548Z,101421.72
2022-08-21T00:29:29.690Z,101413.25
2022-08-21T00:31:59.497Z,101410.56
2022-08-21T00:34:28.783Z,101418.19
2022-08-21T00:36:59.321Z,101411.59
2022-08-21T00:39:28.666Z,101413.97
2022-08-21T00:41:57.896Z,101406.94
2022-08-21T00:44:26.996Z,101414.44
2022-08-21T00:46:56.191Z,101416.50
2022-08-21T00:49:25.715Z,101415.81
2022-08-21T00:52:01.040Z,101418.19
2022-08-21T00:54:31.986Z,101409.31
2022-08-21T00:57:05.792Z,101410.38
2022-08-21T00:59:39.349Z,101412.81
2022-08-21T01:02:11.296Z,101408.66
2022-08-21T01:04:40.757Z,101408.53
2022-08-21T01:07:11.914Z,101414.88
2022-08-21T01:09:42.122Z,101415.66
2022-08-21T01:12:12.437Z,101412.44
2022-08-21T01:14:43.714Z,101413.66
2022-08-21T01:17:14.845Z,101418.13
2022-08-21T01:19:44.236Z,101410.97
2022-08-21T01:22:14.977Z,101415.50
2022-08-21T01:24:44.097Z,101417.56
2022-08-21T01:27:13.190Z,101413.28
2022-08-21T01:29:58.850Z,101417.00
2022-08-21T01:32:28.043Z,101420.22
2022-08-21T01:34:57.186Z,101415.34
2022-08-21T01:37:27.882Z,101422.38
2022-08-21T01:39:57.039Z,101421.78
2022-08-21T01:42:26.299Z,101426.56
2022-08-21T01:44:56.319Z,101419.03
2022-08-21T01:47:25.539Z,101418.09
2022-08-21T01:49:54.947Z,101415.34
2022-08-21T01:52:24.314Z,101412.09
2022-08-21T01:54:55.663Z,101412.31
2022-08-21T01:57:26.164Z,101407.69
2022-08-21T01:59:55.946Z,101401.09
2022-08-21T02:02:24.982Z,101402.38
2022-08-21T02:04:54.085Z,101413.25
2022-08-21T02:07:23.231Z,101401.94
2022-08-21T02:09:52.293Z,101404.03
2022-08-21T02:12:24.037Z,101411.63
2022-08-21T02:14:53.052Z,101405.78
2022-08-21T02:17:22.608Z,101414.59
2022-08-21T02:19:51.943Z,101409.81
2022-08-21T02:22:21.053Z,101408.03
2022-08-21T02:24:50.093Z,101409.94
2022-08-21T02:27:27.003Z,101412.94
2022-08-21T02:29:58.747Z,101412.00
2022-08-21T02:32:28.483Z,101413.66
2022-08-21T02:34:57.797Z,101417.34
2022-08-21T02:37:26.899Z,101408.28
2022-08-21T02:39:55.993Z,101413.09
2022-08-21T02:42:26.591Z,101418.56
2022-08-21T02:44:55.881Z,101417.59
2022-08-21T02:47:24.928Z,101405.75
2022-08-21T02:49:55.473Z,101406.19
2022-08-21T02:52:25.309Z,101406.34
2022-08-21T02:54:54.384Z,101403.88
2022-08-21T02:57:24.795Z,101396.47
2022-08-21T02:59:53.982Z,101390.50
2022-08-21T03:02:23.148Z,101396.19
2022-08-21T03:04:55.804Z,101393.44
2022-08-21T03:07:24.890Z,101396.78
2022-08-21T03:09:55.480Z,101400.72
2022-08-21T03:12:27.881Z,101395.56
2022-08-21T03:14:59.401Z,101388.16
2022-08-21T03:17:29.961Z,101392.44
2022-08-21T03:19:59.750Z,101389.31
2022-08-21T03:22:30.738Z,101388.38
2022-08-21T03:25:00.585Z,101385.53
2022-08-21T03:27:31.874Z,101390.78
2022-08-21T03:30:00.904Z,101390.22
2022-08-21T03:32:31.270Z,101396.59
2022-08-21T03:35:01.273Z,101382.84
2022-08-21T03:37:30.525Z,101388.47
2022-08-21T03:39:59.893Z,101391.59
2022-08-21T03:42:30.364Z,101385.63
2022-08-21T03:44:59.633Z,101385.25
2022-08-21T03:47:28.951Z,101383.84
2022-08-21T03:49:58.012Z,101381.56
2022-08-21T03:52:27.108Z,101386.22
2022-08-21T03:54:56.305Z,101393.50
2022-08-21T03:57:25.562Z,101388.25
2022-08-21T03:59:56.153Z,101392.75
2022-08-21T04:02:25.241Z,101394.06
2022-08-21T04:04:54.815Z,101394.28
2022-08-21T04:07:23.895Z,101395.34
2022-08-21T04:09:52.973Z,101396.09
2022-08-21T04:12:22.882Z,101397.44
2022-08-21T04:14:52.246Z,101394.56
2022-08-21T04:17:22.666Z,101403.66
2022-08-21T04:19:53.820Z,101397.25
2022-08-21T04:22:23.277Z,101391.41
2022-08-21T04:24:52.367Z,101394.69
2022-08-21T04:27:21.465Z,101396.84
2022-08-21T04:29:50.613Z,101397.69
2022-08-21T04:32:25.622Z,101401.59
2022-08-21T04:35:02.046Z,101402.31
2022-08-21T04:37:31.078Z,101405.50
2022-08-21T04:40:00.875Z,101402.66
2022-08-21T04:42:30.607Z,101413.41
2022-08-21T04:45:00.409Z,101404.81
2022-08-21T04:47:41.650Z,101414.03
2022-08-21T04:50:21.015Z,101403.63
2022-08-21T04:53:07.131Z,101404.72
2022-08-21T04:55:38.302Z,101410.06
2022-08-21T04:58:08.778Z,101412.34
2022-08-21T05:00:38.383Z,101416.16
2022-08-21T05:03:11.403Z,101420.22
2022-08-21T05:05:41.689Z,101412.47
2022-08-21T05:08:14.473Z,101412.34
2022-08-21T05:10:45.485Z,101414.13
2022-08-21T05:13:15.545Z,101422.84
2022-08-21T05:15:44.727Z,101415.34
2022-08-21T05:18:15.530Z,101422.59
2022-08-21T05:20:45.619Z,101417.13
2022-08-21T05:23:16.310Z,101420.00
2022-08-21T05:25:45.730Z,101413.16
2022-08-21T05:28:15.245Z,101419.72
2022-08-21T05:30:44.528Z,101422.78
2022-08-21T05:33:15.085Z,101431.56
2022-08-21T05:35:44.276Z,101421.38
2022-08-21T05:38:16.834Z,101424.63
2022-08-21T05:40:48.261Z,101414.91
2022-08-21T05:43:18.727Z,101419.94
2022-08-21T05:45:48.373Z,101422.06
2022-08-21T05:48:21.483Z,101418.06
2022-08-21T05:50:52.610Z,101418.72
2022-08-21T05:53:23.691Z,101427.91
2022-08-21T05:55:53.517Z,101416.91
2022-08-21T05:58:24.625Z,101419.34
2022-08-21T06:00:54.466Z,101420.50
2022-08-21T06:03:27.095Z,101422.34
2022-08-21T06:05:56.794Z,101418.19
2022-08-21T06:08:26.267Z,101417.41
2022-08-21T06:10:56.855Z,101412.28
2022-08-21T06:13:26.554Z,101413.91
2022-08-21T06:16:05.118Z,101401.66
2022-08-21T06:18:36.163Z,101402.22
2022-08-21T06:21:06.474Z,101408.63
2022-08-21T06:23:36.395Z,101406.53
2022-08-21T06:26:06.631Z,101407.13
2022-08-21T06:28:37.864Z,101403.81
2022-08-21T06:31:14.253Z,101409.28
2022-08-21T06:33:45.075Z,101401.81
2022-08-21T06:36:14.265Z,101403.25
2022-08-21T06:38:51.301Z,101401.44
2022-08-21T06:41:24.332Z,101404.38
2022-08-21T06:43:56.745Z,101405.81
2022-08-21T06:46:28.281Z,101402.22
2022-08-21T06:48:59.774Z,101413.22
2022-08-21T06:51:29.673Z,101406.44
2022-08-21T06:53:59.403Z,101402.66
2022-08-21T06:56:28.845Z,101399.53
2022-08-21T06:58:58.265Z,101404.69
2022-08-21T07:01:29.060Z,101402.09
2022-08-21T07:03:59.936Z,101395.81
2022-08-21T07:06:29.535Z,101394.75
2022-08-21T07:09:03.701Z,101392.72
2022-08-21T07:11:32.813Z,101385.63
2022-08-21T07:14:11.496Z,101386.63
2022-08-21T07:16:49.966Z,101392.59
2022-08-21T07:19:21.327Z,101379.91
2022-08-21T07:21:50.568Z,101387.63
2022-08-21T07:24:19.608Z,101377.75
2022-08-21T07:26:48.730Z,101377.56
2022-08-21T07:29:18.534Z,101367.91
2022-08-21T07:31:47.711Z,101367.56
2022-08-21T07:34:16.899Z,101371.59
2022-08-21T07:36:47.508Z,101371.44
2022-08-21T07:39:18.758Z,101358.69
2022-08-21T07:41:47.795Z,101359.59
2022-08-21T07:44:16.937Z,101354.34
2022-08-21T07:46:46.090Z,101357.44
2022-08-21T07:49:15.095Z,101363.09
2022-08-21T07:51:44.307Z,101359.47
2022-08-21T07:54:17.311Z,101355.97
2022-08-21T07:56:46.683Z,101359.63
2022-08-21T07:59:15.770Z,101352.44
2022-08-21T08:01:44.949Z,101361.84
2022-08-21T08:04:15.934Z,101355.38
2022-08-21T08:06:44.928Z,101343.22
2022-08-21T08:09:16.148Z,101345.56
2022-08-21T08:11:46.618Z,101346.25
2022-08-21T08:14:16.546Z,101337.34
2022-08-21T08:16:46.145Z,101343.72
2022-08-21T08:19:15.162Z,101338.19
2022-08-21T08:21:44.263Z,101327.16
2022-08-21T08:24:18.807Z,101329.94
2022-08-21T08:26:53.774Z,101331.41
2022-08-21T08:29:23.618Z,101323.38
2022-08-21T08:31:52.946Z,101326.09
2022-08-21T08:34:25.763Z,101326.03
2022-08-21T08:36:55.456Z,101327.81
2022-08-21T08:39:29.629Z,101318.63
2022-08-21T08:42:31.954Z,101314.47
2022-08-21T08:45:01.377Z,101317.75
2022-08-21T08:47:34.538Z,101321.41
2022-08-21T08:50:08.135Z,101316.59
2022-08-21T08:52:43.524Z,101311.19
2022-08-21T08:55:17.864Z,101309.69
2022-08-21T08:57:50.247Z,101307.41
2022-08-21T09:00:22.083Z,101314.78
2022-08-21T09:02:54.731Z,101315.31
2022-08-21T09:05:26.943Z,101319.44
2022-08-21T09:08:18.544Z,101312.50
2022-08-21T09:10:59.819Z,101315.50
2022-08-21T09:13:46.187Z,101311.38
2022-08-21T09:16:24.511Z,101308.78
2022-08-21T09:19:03.693Z,101300.78
2022-08-21T09:21:44.355Z,101303.66
2022-08-21T09:24:32.933Z,101298.16
2022-08-21T09:27:08.769Z,101307.97
2022-08-21T09:29:41.161Z,101299.75
2022-08-21T09:32:18.719Z,101292.59
2022-08-21T09:34:59.855Z,101295.09
2022-08-21T09:37:31.021Z,101295.41
2022-08-21T09:40:01.253Z,101292.34
2022-08-21T09:42:33.949Z,101297.78
2022-08-21T09:45:14.779Z,101287.44
2022-08-21T09:47:46.561Z,101289.72
2022-08-21T09:50:19.291Z,101293.63
2022-08-21T09:52:52.835Z,101293.97
2022-08-21T09:55:51.424Z,101295.88
2022-08-21T09:58:23.096Z,101289.06
2022-08-21T10:01:01.251Z,101280.38
2022-08-21T10:03:30.894Z,101280.38
2022-08-21T10:06:09.320Z,101285.78
2022-08-21T10:11:14.751Z,101287.75
2022-08-21T10:14:02.056Z,101279.50
2022-08-21T10:16:43.801Z,101280.41
2022-08-21T10:19:25.670Z,101269.66
2022-08-21T10:22:05.434Z,101274.63
2022-08-21T10:24:42.786Z,101273.63
2022-08-21T10:27:23.978Z,101280.25
2022-08-21T10:30:05.164Z,101281.72
2022-08-21T10:32:55.679Z,101293.44
2022-08-21T10:35:32.436Z,101283.88
2022-08-21T10:38:52.618Z,101280.72
2022-08-21T10:41:35.170Z,101286.09
2022-08-21T10:44:16.352Z,101289.72
2022-08-21T10:46:56.817Z,101289.75
2022-08-21T10:49:40.931Z,101280.88
2022-08-21T10:52:30.053Z,101285.50
2022-08-21T10:55:04.949Z,101281.03
2022-08-21T10:57:43.116Z,101274.19
2022-08-21T11:00:16.796Z,101282.56
2022-08-21T11:02:55.192Z,101273.56
2022-08-21T11:05:33.368Z,101276.72
2022-08-21T11:08:08.910Z,101272.63
2022-08-21T11:10:51.322Z,101272.22
2022-08-21T11:13:34.947Z,101287.81
2022-08-21T11:16:12.978Z,101282.78
2022-08-21T11:18:51.972Z,101283.72
2022-08-21T11:21:40.297Z,101284.69
2022-08-21T11:24:27.478Z,101274.06
2022-08-21T11:27:06.579Z,101281.16
2022-08-21T11:29:40.508Z,101281.19
2022-08-21T11:32:49.700Z,101281.22
2022-08-21T11:35:33.396Z,101275.69
2022-08-21T11:38:19.795Z,101292.00
2022-08-21T11:41:08.584Z,101287.56
2022-08-21T11:43:43.638Z,101278.59
2022-08-21T11:46:35.148Z,101283.53
2022-08-21T11:49:21.542Z,101276.69
2022-08-21T11:52:01.896Z,101280.13
2022-08-21T11:54:37.613Z,101270.03
2022-08-21T11:57:15.631Z,101282.19
2022-08-21T11:59:52.207Z,101277.81
2022-08-21T12:02:26.791Z,101277.38
2022-08-21T12:05:08.509Z,101274.38
2022-08-21T12:07:44.665Z,101281.19
2022-08-21T12:10:18.595Z,101283.25
2022-08-21T12:12:48.044Z,101275.22
2022-08-21T12:15:28.694Z,101274.34
2022-08-21T12:18:01.709Z,101271.69
2022-08-21T12:20:50.659Z,101268.38
2022-08-21T12:23:28.719Z,101270.16
2022-08-21T12:26:18.217Z,101269.06
2022-08-21T12:28:48.387Z,101267.78
2022-08-21T12:31:23.633Z,101263.69
2022-08-21T12:33:57.870Z,101269.16
2022-08-21T12:36:38.928Z,101274.25
2022-08-21T12:39:15.918Z,101269.06
2022-08-21T12:41:53.206Z,101269.41
2022-08-21T12:44:30.552Z,101273.81
2022-08-21T12:47:04.411Z,101276.91
2022-08-21T12:49:37.770Z,101278.13
2022-08-21T12:52:13.375Z,101277.00
2022-08-21T12:54:46.155Z,101270.53
2022-08-21T12:57:22.795Z,101263.53
2022-08-21T12:59:56.835Z,101259.34
2022-08-21T13:02:30.515Z,101250.22
2022-08-21T13:05:01.263Z,101262.69
2022-08-21T13:07:34.334Z,101258.38
2022-08-21T13:10:10.508Z,101260.53
2022-08-21T13:12:39.723Z,101264.50
2022-08-21T13:15:12.097Z,101262.69
2022-08-21T13:17:47.218Z,101251.56
2022-08-21T13:20:24.482Z,101250.69
2022-08-21T13:22:53.833Z,101247.25
2022-08-21T13:25:28.851Z,101249.16
2022-08-21T13:28:06.018Z,101250.09
2022-08-21T13:30:35.941Z,101241.09
2022-08-21T13:33:12.889Z,101235.81
2022-08-21T13:35:51.850Z,101244.41
2022-08-21T13:38:27.322Z,101241.25
2022-08-21T13:41:01.211Z,101245.81
2022-08-21T13:43:34.238Z,101256.75
2022-08-21T13:46:09.720Z,101250.84
2022-08-21T13:48:40.254Z,101242.50
2022-08-21T13:51:10.156Z,101244.47
2022-08-21T13:53:52.555Z,101243.53
2022-08-21T13:56:28.245Z,101241.47
2022-08-21T13:58:58.846Z,101250.28
2022-08-21T14:01:30.678Z,101248.00
2022-08-21T14:04:04.477Z,101249.91
2022-08-21T14:06:38.004Z,101260.81
2022-08-21T14:09:13.545Z,101260.19
2022-08-21T14:11:44.059Z,101254.63
2022-08-21T14:14:22.025Z,101248.41
2022-08-21T14:16:57.514Z,101248.69
2022-08-21T14:19:29.095Z,101254.25
2022-08-21T14:21:58.535Z,101243.19
2022-08-21T14:24:31.462Z,101234.94
2022-08-21T14:27:08.579Z,101252.19
2022-08-21T14:29:41.983Z,101249.91
2022-08-21T14:32:21.870Z,101244.94
2022-08-21T14:34:55.357Z,101243.69
2022-08-21T14:37:28.517Z,101243.22
2022-08-21T14:39:57.573Z,101238.72
2022-08-21T14:42:28.368Z,101244.09
2022-08-21T14:45:01.860Z,101241.50
2022-08-21T14:47:30.928Z,101243.75
2022-08-21T14:50:00.051Z,101234.69
2022-08-21T14:52:29.140Z,101241.13
2022-08-21T14:54:58.181Z,101240.13
2022-08-21T14:57:31.823Z,101238.00
2022-08-21T15:00:02.109Z,101240.88
2022-08-21T15:02:31.412Z,101237.81
2022-08-21T15:05:00.435Z,101243.56
2022-08-21T15:07:29.516Z,101233.84
2022-08-21T15:09:58.648Z,101235.34
2022-08-21T15:12:29.642Z,101245.41
2022-08-21T15:14:58.910Z,101241.84
2022-08-21T15:17:28.704Z,101245.66
2022-08-21T15:19:57.776Z,101246.41
2022-08-21T15:22:27.883Z,101240.75
2022-08-21T15:24:57.209Z,101238.03
2022-08-21T15:27:26.291Z,101238.91
2022-08-21T15:29:56.658Z,101230.19
2022-08-21T15:32:29.209Z,101240.41
2022-08-21T15:34:59.196Z,101244.53
2022-08-21T15:37:28.745Z,101238.25
2022-08-21T15:39:58.069Z,101243.31
2022-08-21T15:42:28.488Z,101247.28
2022-08-21T15:45:00.262Z,101240.75
2022-08-21T15:47:32.649Z,101240.00
2022-08-21T15:50:02.089Z,101241.25
2022-08-21T15:52:31.183Z,101240.78
2022-08-21T15:55:00.248Z,101236.41
2022-08-21T15:57:29.767Z,101232.53
2022-08-21T16:00:08.982Z,101233.06
2022-08-21T16:02:44.191Z,101239.00
2022-08-21T16:05:17.239Z,101234.16
2022-08-21T16:07:47.239Z,101230.84
2022-08-21T16:10:18.447Z,101234.00
2022-08-21T16:12:50.707Z,101234.06
2022-08-21T16:15:21.209Z,101237.41
2022-08-21T16:17:52.837Z,101235.34
2022-08-21T16:20:25.459Z,101231.47
2022-08-21T16:22:55.931Z,101236.50
2022-08-21T16:25:25.595Z,101239.03
2022-08-21T16:27:59.592Z,101241.03
2022-08-21T16:30:31.519Z,101230.97
2022-08-21T16:33:03.322Z,101234.22
2022-08-21T16:35:32.836Z,101240.75
2022-08-21T16:38:02.387Z,101242.00
2022-08-21T16:40:31.569Z,101233.53
2022-08-21T16:43:00.945Z,101245.59
2022-08-21T16:45:33.343Z,101244.06
2022-08-21T16:48:04.438Z,101247.19
2022-08-21T16:50:33.774Z,101243.28
2022-08-21T16:53:02.987Z,101244.13
2022-08-21T16:55:33.194Z,101245.16
2022-08-21T16:58:10.669Z,101246.19
2022-08-21T17:00:41.866Z,101244.53
2022-08-21T17:03:16.129Z,101239.59
2022-08-21T17:05:45.439Z,101237.47
2022-08-21T17:08:15.220Z,101242.88
2022-08-21T17:10:48.812Z,101250.72
2022-08-21T17:13:19.076Z,101250.72
2022-08-21T17:15:49.942Z,101244.53
2022-08-21T17:18:21.572Z,101252.50
2022-08-21T17:20:50.995Z,101249.22
2022-08-21T17:23:21.540Z,101256.41
2022-08-21T17:25:54.155Z,101257.44
2022-08-21T17:28:27.655Z,101256.66
2022-08-21T17:31:02.319Z,101261.16
2022-08-21T17:33:45.762Z,101259.88
2022-08-21T17:36:15.259Z,101262.47
2022-08-21T17:38:44.731Z,101255.63
2022-08-21T17:41:14.982Z,101264.56
2022-08-21T17:43:44.844Z,101267.56
2022-08-21T17:46:20.085Z,101269.09
2022-08-21T17:48:50.044Z,101271.63
2022-08-21T17:51:19.464Z,101279.91
2022-08-21T17:53:48.756Z,101275.66
2022-08-21T17:56:19.723Z,101280.50
2022-08-21T17:58:51.529Z,101281.97
2022-08-21T18:01:23.002Z,101285.38
2022-08-21T18:03:52.317Z,101286.03
2022-08-21T18:06:21.484Z,101288.81
2022-08-21T18:08:50.836Z,101294.28
2022-08-21T18:11:24.205Z,101298.06
2022-08-21T18:13:55.121Z,101300.34
2022-08-21T18:16:25.601Z,101299.06
2022-08-21T18:18:55.963Z,101312.13
2022-08-21T18:21:26.155Z,101307.81
2022-08-21T18:23:55.936Z,101310.50
2022-08-21T18:26:30.364Z,101310.22
2022-08-21T18:29:01.722Z,101311.22
2022-08-21T18:31:34.065Z,101313.88
2022-08-21T18:34:07.517Z,101312.25
2022-08-21T18:36:39.115Z,101309.41
2022-08-21T18:39:34.864Z,101314.44
2022-08-21T18:42:08.746Z,101326.94
2022-08-21T18:44:42.366Z,101326.00
2022-08-21T18:47:18.519Z,101325.88
2022-08-21T18:49:47.747Z,101331.44
2022-08-21T18:52:20.355Z,101329.16
2022-08-21T18:54:50.247Z,101343.06
2022-08-21T19:00:12.930Z,101334.03
2022-08-21T19:02:44.315Z,101333.09
2022-08-21T19:05:15.856Z,101333.63
2022-08-21T19:07:47.688Z,101344.16
2022-08-21T19:10:24.954Z,101353.53
2022-08-21T19:13:00.658Z,101351.66
2022-08-21T19:15:30.401Z,101357.91
2022-08-21T19:18:01.067Z,101369.75
2022-08-21T19:20:36.809Z,101364.97
2022-08-21T19:23:12.772Z,101364.16
2022-08-21T19:25:43.775Z,101363.84
2022-08-21T19:28:16.972Z,101370.81
2022-08-21T19:30:53.940Z,101374.81
2022-08-21T19:33:33.670Z,101368.50
2022-08-21T19:36:03.278Z,101376.63
2022-08-21T19:38:32.846Z,101367.19
2022-08-21T19:41:03.110Z,101376.97
2022-08-21T19:43:35.190Z,101374.19
2022-08-21T19:46:04.491Z,101371.03
2022-08-21T19:48:36.645Z,101374.19
2022-08-21T19:51:06.751Z,101375.84
2022-08-21T19:53:36.138Z,101376.34
2022-08-21T19:56:05.978Z,101379.84
2022-08-21T19:58:37.880Z,101380.81
2022-08-21T20:01:12.487Z,101375.50
2022-08-21T20:04:01.010Z,101382.78
2022-08-21T20:06:30.482Z,101377.00
2022-08-21T20:09:01.063Z,101381.16
2022-08-21T20:11:32.948Z,101379.34
2022-08-21T20:14:07.802Z,101380.16
2022-08-21T20:16:37.843Z,101390.13
2022-08-21T20:19:12.765Z,101391.09
2022-08-21T20:21:43.463Z,101391.28
2022-08-21T20:24:14.856Z,101390.28
2022-08-21T20:26:49.301Z,101391.28
2022-08-21T20:29:25.924Z,101396.09
2022-08-21T20:32:07.724Z,101398.41
2022-08-21T20:34:38.553Z,101389.97
2022-08-21T20:37:09.184Z,101391.78
2022-08-21T20:39:38.879Z,101387.97
2022-08-21T20:42:11.043Z,101390.28
2022-08-21T20:44:46.532Z,101387.13
2022-08-21T20:47:16.944Z,101390.94
2022-08-21T20:49:53.604Z,101390.13
2022-08-21T20:52:26.090Z,101391.44
2022-08-21T20:55:02.060Z,101391.09
2022-08-21T20:57:39.250Z,101396.72
2022-08-21T21:03:07.994Z,101404.47
2022-08-21T21:05:47.026Z,101411.53
2022-08-21T21:08:22.703Z,101410.56
2022-08-21T21:10:59.025Z,101413.69
2022-08-21T21:13:31.509Z,101414.59
2022-08-21T21:16:05.732Z,101424.28
2022-08-21T21:18:40.772Z,101421.19
2022-08-21T21:21:18.189Z,101425.53
2022-08-21T21:23:51.820Z,101425.88
2022-08-21T21:26:29.178Z,101417.56
2022-08-21T21:29:04.306Z,101419.69
2022-08-21T21:31:37.713Z,101421.16
2022-08-21T21:34:06.760Z,101421.69
2022-08-21T21:36:44.041Z,101422.06
2022-08-21T21:39:36.513Z,101423.34
2022-08-21T21:42:17.930Z,101421.31
2022-08-21T21:45:13.618Z,101428.19
2022-08-21T21:47:59.026Z,101431.28
2022-08-21T21:50:42.645Z,101434.84
2022-08-21T21:53:36.401Z,101442.25
2022-08-21T21:56:20.224Z,101443.63
2022-08-21T21:59:08.313Z,101441.28
2022-08-21T22:01:47.267Z,101445.81
2022-08-21T22:04:23.903Z,101447.34
2022-08-21T22:07:08.927Z,101450.13
2022-08-21T22:09:46.566Z,101442.31
2022-08-21T22:12:42.208Z,101443.09
2022-08-21T22:15:27.711Z,101442.78
2022-08-21T22:18:03.718Z,101434.53
2022-08-21T22:20:39.257Z,101444.28
2022-08-21T22:23:16.008Z,101448.38
2022-08-21T22:25:50.235Z,101448.78
2022-08-21T22:28:25.748Z,101434.84
2022-08-21T22:31:10.984Z,101438.34
2022-08-21T22:33:41.006Z,101440.34
2022-08-21T22:36:19.958Z,101442.25
2022-08-21T22:41:43.018Z,101442.78
2022-08-21T22:44:23.714Z,101449.31
2022-08-21T22:46:59.719Z,101449.81
2022-08-21T22:49:36.122Z,101447.69
2022-08-21T22:52:12.389Z,101444.25
2022-08-21T22:54:45.715Z,101441.44
2022-08-21T22:57:27.816Z,101446.53
2022-08-21T23:00:02.633Z,101453.41
2022-08-21T23:02:38.698Z,101445.25
2022-08-21T23:05:19.881Z,101447.63
2022-08-21T23:07:50.782Z,101445.47
2022-08-21T23:10:29.525Z,101458.44
2022-08-21T23:13:09.034Z,101458.13
2022-08-21T23:16:05.131Z,101452.41
2022-08-21T23:18:48.646Z,101455.78
2022-08-21T23:21:23.984Z,101455.66
2022-08-21T23:24:07.430Z,101452.00
2022-08-21T23:27:01.104Z,101449.63
2022-08-21T23:29:44.683Z,101461.47
2022-08-21T23:32:31.933Z,101457.97
2022-08-21T23:35:15.701Z,101457.56
2022-08-21T23:37:55.573Z,101460.75
2022-08-21T23:40:50.656Z,101449.28
2022-08-21T23:43:35.653Z,101450.97
2022-08-21T23:49:44.303Z,101459.38
2022-08-21T23:52:24.327Z,101450.59
2022-08-21T23:55:24.740Z,101448.84
2022-08-21T23:58:05.991Z,101453.41
